sensor_id;sensor_type;location;lat;lon;timestamp;P1;durP1;ratioP1;P2;durP2;ratioP2
51312;SDS011;37397;53.226;10.400;2023-03-26T00:01:14;9.18;;;2.28;;
51312;SDS011;37397;53.226;10.400;2023-03-26T00:03:46;11.90;;;2.47;;
51312;SDS011;37397;53.226;10.400;2023-03-26T00:06:20;9.43;;;2.42;;
51312;SDS011;37397;53.226;10.400;2023-03-26T00:08:48;10.80;;;2.50;;
51312;SDS011;37397;53.226;10.400;2023-03-26T00:11:16;8.57;;;2.55;;
51312;SDS011;37397;53.226;10.400;2023-03-26T00:13:44;8.43;;;2.15;;
51312;SDS011;37397;53.226;10.400;2023-03-26T00:16:16;12.23;;;2.90;;
51312;SDS011;37397;53.226;10.400;2023-03-26T00:18:45;6.15;;;2.05;;
51312;SDS011;37397;53.226;10.400;2023-03-26T00:21:15;11.43;;;2.88;;
51312;SDS011;37397;53.226;10.400;2023-03-26T00:23:46;9.15;;;2.22;;
51312;SDS011;37397;53.226;10.400;2023-03-26T00:26:14;9.48;;;2.47;;
51312;SDS011;37397;53.226;10.400;2023-03-26T00:28:43;10.88;;;2.50;;
51312;SDS011;37397;53.226;10.400;2023-03-26T00:31:10;9.50;;;2.63;;
51312;SDS011;37397;53.226;10.400;2023-03-26T00:33:39;8.43;;;2.35;;
51312;SDS011;37397;53.226;10.400;2023-03-26T00:36:11;10.38;;;2.78;;
51312;SDS011;37397;53.226;10.400;2023-03-26T00:38:42;13.95;;;2.85;;
51312;SDS011;37397;53.226;10.400;2023-03-26T00:41:11;15.18;;;3.13;;
51312;SDS011;37397;53.226;10.400;2023-03-26T00:43:59;8.82;;;2.53;;
51312;SDS011;37397;53.226;10.400;2023-03-26T00:46:27;9.93;;;2.35;;
51312;SDS011;37397;53.226;10.400;2023-03-26T00:48:55;15.07;;;3.20;;
51312;SDS011;37397;53.226;10.400;2023-03-26T00:51:24;10.38;;;2.58;;
51312;SDS011;37397;53.226;10.400;2023-03-26T00:53:51;9.65;;;2.53;;
51312;SDS011;37397;53.226;10.400;2023-03-26T00:56:18;6.82;;;2.10;;
51312;SDS011;37397;53.226;10.400;2023-03-26T00:58:46;9.10;;;2.60;;
51312;SDS011;37397;53.226;10.400;2023-03-26T01:01:17;8.93;;;2.45;;
51312;SDS011;37397;53.226;10.400;2023-03-26T01:03:53;10.13;;;2.35;;
51312;SDS011;37397;53.226;10.400;2023-03-26T01:06:34;8.73;;;2.50;;
51312;SDS011;37397;53.226;10.400;2023-03-26T01:09:08;10.93;;;2.42;;
51312;SDS011;37397;53.226;10.400;2023-03-26T01:11:40;8.63;;;2.60;;
51312;SDS011;37397;53.226;10.400;2023-03-26T01:16:51;8.23;;;2.00;;
51312;SDS011;37397;53.226;10.400;2023-03-26T01:19:28;12.15;;;2.35;;
51312;SDS011;37397;53.226;10.400;2023-03-26T01:21:56;15.18;;;3.22;;
51312;SDS011;37397;53.226;10.400;2023-03-26T01:24:24;7.55;;;2.30;;
51312;SDS011;37397;53.226;10.400;2023-03-26T01:35:26;7.18;;;2.20;;
51312;SDS011;37397;53.226;10.400;2023-03-26T01:43:35;8.70;;;2.45;;
51312;SDS011;37397;53.226;10.400;2023-03-26T01:46:09;8.68;;;2.30;;
51312;SDS011;37397;53.226;10.400;2023-03-26T01:48:38;8.40;;;2.25;;
51312;SDS011;37397;53.226;10.400;2023-03-26T01:51:07;6.85;;;2.00;;
51312;SDS011;37397;53.226;10.400;2023-03-26T01:53:36;7.22;;;2.20;;
51312;SDS011;37397;53.226;10.400;2023-03-26T02:01:59;7.63;;;2.17;;
51312;SDS011;37397;53.226;10.400;2023-03-26T02:04:36;6.82;;;1.90;;
51312;SDS011;37397;53.226;10.400;2023-03-26T02:07:32;6.55;;;1.73;;
51312;SDS011;37397;53.226;10.400;2023-03-26T02:13:04;8.13;;;2.03;;
51312;SDS011;37397;53.226;10.400;2023-03-26T02:15:31;8.77;;;2.03;;
51312;SDS011;37397;53.226;10.400;2023-03-26T02:17:58;4.25;;;1.67;;
51312;SDS011;37397;53.226;10.400;2023-03-26T02:20:26;7.38;;;1.80;;
51312;SDS011;37397;53.226;10.400;2023-03-26T02:22:55;7.80;;;2.05;;
51312;SDS011;37397;53.226;10.400;2023-03-26T02:25:23;6.38;;;1.80;;
51312;SDS011;37397;53.226;10.400;2023-03-26T02:27:51;7.55;;;1.83;;
51312;SDS011;37397;53.226;10.400;2023-03-26T02:30:20;13.05;;;1.80;;
51312;SDS011;37397;53.226;10.400;2023-03-26T02:32:56;7.05;;;1.95;;
51312;SDS011;37397;53.226;10.400;2023-03-26T02:35:29;9.52;;;2.38;;
51312;SDS011;37397;53.226;10.400;2023-03-26T02:37:59;10.10;;;2.03;;
51312;SDS011;37397;53.226;10.400;2023-03-26T02:40:25;8.90;;;2.03;;
51312;SDS011;37397;53.226;10.400;2023-03-26T02:42:52;9.07;;;2.20;;
51312;SDS011;37397;53.226;10.400;2023-03-26T02:45:20;7.75;;;2.10;;
51312;SDS011;37397;53.226;10.400;2023-03-26T02:48:13;6.13;;;1.92;;
51312;SDS011;37397;53.226;10.400;2023-03-26T02:50:52;10.05;;;2.58;;
51312;SDS011;37397;53.226;10.400;2023-03-26T02:53:40;6.90;;;1.75;;
51312;SDS011;37397;53.226;10.400;2023-03-26T02:56:27;7.28;;;1.88;;
51312;SDS011;37397;53.226;10.400;2023-03-26T02:59:11;9.43;;;2.25;;
51312;SDS011;37397;53.226;10.400;2023-03-26T03:01:41;6.93;;;1.92;;
51312;SDS011;37397;53.226;10.400;2023-03-26T03:04:12;11.65;;;2.55;;
51312;SDS011;37397;53.226;10.400;2023-03-26T03:06:40;6.53;;;2.28;;
51312;SDS011;37397;53.226;10.400;2023-03-26T03:09:07;7.80;;;2.08;;
51312;SDS011;37397;53.226;10.400;2023-03-26T03:11:34;8.43;;;2.42;;
51312;SDS011;37397;53.226;10.400;2023-03-26T03:14:01;8.73;;;2.13;;
51312;SDS011;37397;53.226;10.400;2023-03-26T03:16:29;12.70;;;2.60;;
51312;SDS011;37397;53.226;10.400;2023-03-26T03:19:06;11.85;;;3.15;;
51312;SDS011;37397;53.226;10.400;2023-03-26T03:21:37;12.68;;;2.60;;
51312;SDS011;37397;53.226;10.400;2023-03-26T03:24:05;12.15;;;2.53;;
51312;SDS011;37397;53.226;10.400;2023-03-26T03:26:36;11.40;;;3.38;;
51312;SDS011;37397;53.226;10.400;2023-03-26T03:29:15;14.27;;;2.55;;
51312;SDS011;37397;53.226;10.400;2023-03-26T03:31:42;9.43;;;2.42;;
51312;SDS011;37397;53.226;10.400;2023-03-26T03:34:20;11.18;;;2.50;;
51312;SDS011;37397;53.226;10.400;2023-03-26T03:36:49;10.43;;;2.20;;
51312;SDS011;37397;53.226;10.400;2023-03-26T03:39:28;9.18;;;2.53;;
51312;SDS011;37397;53.226;10.400;2023-03-26T03:41:54;9.82;;;2.63;;
51312;SDS011;37397;53.226;10.400;2023-03-26T03:44:21;10.20;;;2.30;;
51312;SDS011;37397;53.226;10.400;2023-03-26T03:46:48;9.43;;;2.30;;
51312;SDS011;37397;53.226;10.400;2023-03-26T03:49:20;8.27;;;2.00;;
51312;SDS011;37397;53.226;10.400;2023-03-26T03:51:47;11.40;;;2.55;;
51312;SDS011;37397;53.226;10.400;2023-03-26T03:54:25;9.18;;;1.98;;
51312;SDS011;37397;53.226;10.400;2023-03-26T03:57:07;9.43;;;2.03;;
51312;SDS011;37397;53.226;10.400;2023-03-26T03:59:40;10.27;;;2.15;;
51312;SDS011;37397;53.226;10.400;2023-03-26T04:02:14;13.63;;;2.85;;
51312;SDS011;37397;53.226;10.400;2023-03-26T04:04:56;7.63;;;1.98;;
51312;SDS011;37397;53.226;10.400;2023-03-26T04:07:23;12.77;;;2.63;;
51312;SDS011;37397;53.226;10.400;2023-03-26T04:10:03;7.13;;;2.05;;
51312;SDS011;37397;53.226;10.400;2023-03-26T04:13:12;10.38;;;2.65;;
51312;SDS011;37397;53.226;10.400;2023-03-26T04:16:00;6.82;;;2.15;;
51312;SDS011;37397;53.226;10.400;2023-03-26T04:18:27;7.72;;;2.22;;
51312;SDS011;37397;53.226;10.400;2023-03-26T04:20:59;10.80;;;2.30;;
51312;SDS011;37397;53.226;10.400;2023-03-26T04:23:29;10.55;;;2.58;;
51312;SDS011;37397;53.226;10.400;2023-03-26T04:26:04;9.25;;;2.30;;
51312;SDS011;37397;53.226;10.400;2023-03-26T04:28:59;9.88;;;2.42;;
51312;SDS011;37397;53.226;10.400;2023-03-26T04:31:30;12.23;;;2.60;;
51312;SDS011;37397;53.226;10.400;2023-03-26T04:33:59;9.98;;;2.70;;
51312;SDS011;37397;53.226;10.400;2023-03-26T04:36:39;9.70;;;2.53;;
51312;SDS011;37397;53.226;10.400;2023-03-26T04:39:09;10.00;;;2.60;;
51312;SDS011;37397;53.226;10.400;2023-03-26T04:42:13;12.48;;;2.70;;
51312;SDS011;37397;53.226;10.400;2023-03-26T04:44:53;7.53;;;2.15;;
51312;SDS011;37397;53.226;10.400;2023-03-26T04:47:20;10.30;;;2.15;;
51312;SDS011;37397;53.226;10.400;2023-03-26T04:49:47;9.23;;;2.20;;
51312;SDS011;37397;53.226;10.400;2023-03-26T04:52:15;16.00;;;2.90;;
51312;SDS011;37397;53.226;10.400;2023-03-26T04:55:02;12.75;;;2.95;;
51312;SDS011;37397;53.226;10.400;2023-03-26T04:57:37;11.85;;;2.67;;
51312;SDS011;37397;53.226;10.400;2023-03-26T05:00:16;13.87;;;2.47;;
51312;SDS011;37397;53.226;10.400;2023-03-26T05:02:51;12.05;;;2.55;;
51312;SDS011;37397;53.226;10.400;2023-03-26T05:05:22;12.50;;;2.42;;
51312;SDS011;37397;53.226;10.400;2023-03-26T05:07:49;15.98;;;2.80;;
51312;SDS011;37397;53.226;10.400;2023-03-26T05:10:18;11.50;;;2.70;;
51312;SDS011;37397;53.226;10.400;2023-03-26T05:12:55;12.80;;;2.88;;
51312;SDS011;37397;53.226;10.400;2023-03-26T05:15:25;16.13;;;2.88;;
51312;SDS011;37397;53.226;10.400;2023-03-26T05:17:55;14.90;;;2.83;;
51312;SDS011;37397;53.226;10.400;2023-03-26T05:20:44;11.23;;;2.85;;
51312;SDS011;37397;53.226;10.400;2023-03-26T05:23:11;10.52;;;2.97;;
51312;SDS011;37397;53.226;10.400;2023-03-26T05:25:45;13.43;;;2.38;;
51312;SDS011;37397;53.226;10.400;2023-03-26T05:28:18;15.77;;;2.38;;
51312;SDS011;37397;53.226;10.400;2023-03-26T05:31:07;10.05;;;2.50;;
51312;SDS011;37397;53.226;10.400;2023-03-26T05:33:37;13.32;;;2.92;;
51312;SDS011;37397;53.226;10.400;2023-03-26T05:36:08;13.73;;;2.83;;
51312;SDS011;37397;53.226;10.400;2023-03-26T05:38:41;10.57;;;2.65;;
51312;SDS011;37397;53.226;10.400;2023-03-26T05:41:41;8.50;;;2.28;;
51312;SDS011;37397;53.226;10.400;2023-03-26T05:44:08;12.27;;;2.72;;
51312;SDS011;37397;53.226;10.400;2023-03-26T05:46:35;9.80;;;2.90;;
51312;SDS011;37397;53.226;10.400;2023-03-26T05:49:02;10.20;;;2.75;;
51312;SDS011;37397;53.226;10.400;2023-03-26T05:51:32;14.60;;;2.90;;
51312;SDS011;37397;53.226;10.400;2023-03-26T05:57:01;10.93;;;2.70;;
51312;SDS011;37397;53.226;10.400;2023-03-26T05:59:47;11.23;;;2.45;;
51312;SDS011;37397;53.226;10.400;2023-03-26T06:02:33;11.63;;;2.70;;
51312;SDS011;37397;53.226;10.400;2023-03-26T06:05:19;12.02;;;2.80;;
51312;SDS011;37397;53.226;10.400;2023-03-26T06:07:57;17.70;;;2.97;;
51312;SDS011;37397;53.226;10.400;2023-03-26T06:10:30;11.63;;;2.80;;
51312;SDS011;37397;53.226;10.400;2023-03-26T06:12:57;10.45;;;2.60;;
51312;SDS011;37397;53.226;10.400;2023-03-26T06:15:23;11.63;;;2.70;;
51312;SDS011;37397;53.226;10.400;2023-03-26T06:18:03;9.75;;;2.55;;
51312;SDS011;37397;53.226;10.400;2023-03-26T06:20:45;11.25;;;2.75;;
51312;SDS011;37397;53.226;10.400;2023-03-26T06:23:23;13.18;;;2.97;;
51312;SDS011;37397;53.226;10.400;2023-03-26T06:26:10;12.70;;;3.33;;
51312;SDS011;37397;53.226;10.400;2023-03-26T06:28:46;9.45;;;2.38;;
51312;SDS011;37397;53.226;10.400;2023-03-26T06:31:33;14.73;;;3.15;;
51312;SDS011;37397;53.226;10.400;2023-03-26T06:34:12;17.08;;;2.85;;
51312;SDS011;37397;53.226;10.400;2023-03-26T06:36:39;12.25;;;2.90;;
51312;SDS011;37397;53.226;10.400;2023-03-26T06:39:06;11.48;;;2.75;;
51312;SDS011;37397;53.226;10.400;2023-03-26T06:41:37;14.82;;;2.85;;
51312;SDS011;37397;53.226;10.400;2023-03-26T06:44:18;12.60;;;2.85;;
51312;SDS011;37397;53.226;10.400;2023-03-26T06:47:10;12.20;;;2.88;;
51312;SDS011;37397;53.226;10.400;2023-03-26T06:49:49;11.45;;;2.70;;
51312;SDS011;37397;53.226;10.400;2023-03-26T06:52:29;16.88;;;2.90;;
51312;SDS011;37397;53.226;10.400;2023-03-26T06:55:22;10.88;;;2.72;;
51312;SDS011;37397;53.226;10.400;2023-03-26T06:58:04;8.98;;;2.35;;
51312;SDS011;37397;53.226;10.400;2023-03-26T07:00:42;12.20;;;2.38;;
51312;SDS011;37397;53.226;10.400;2023-03-26T07:03:27;7.47;;;2.00;;
51312;SDS011;37397;53.226;10.400;2023-03-26T07:06:13;9.32;;;2.70;;
51312;SDS011;37397;53.226;10.400;2023-03-26T07:09:00;7.50;;;2.20;;
51312;SDS011;37397;53.226;10.400;2023-03-26T07:11:29;14.27;;;2.55;;
51312;SDS011;37397;53.226;10.400;2023-03-26T07:14:15;14.05;;;2.80;;
51312;SDS011;37397;53.226;10.400;2023-03-26T07:17:00;8.38;;;2.10;;
51312;SDS011;37397;53.226;10.400;2023-03-26T07:19:43;11.20;;;2.60;;
51312;SDS011;37397;53.226;10.400;2023-03-26T07:22:13;13.43;;;2.70;;
51312;SDS011;37397;53.226;10.400;2023-03-26T07:25:05;13.32;;;2.90;;
51312;SDS011;37397;53.226;10.400;2023-03-26T07:28:57;10.57;;;2.60;;
51312;SDS011;37397;53.226;10.400;2023-03-26T07:36:42;12.10;;;3.10;;
51312;SDS011;37397;53.226;10.400;2023-03-26T07:45:52;8.95;;;2.45;;
51312;SDS011;37397;53.226;10.400;2023-03-26T07:48:48;17.38;;;2.92;;
51312;SDS011;37397;53.226;10.400;2023-03-26T07:51:31;11.15;;;2.90;;
51312;SDS011;37397;53.226;10.400;2023-03-26T07:54:09;14.85;;;3.05;;
51312;SDS011;37397;53.226;10.400;2023-03-26T07:56:58;11.50;;;2.97;;
51312;SDS011;37397;53.226;10.400;2023-03-26T08:09:17;14.30;;;3.20;;
51312;SDS011;37397;53.226;10.400;2023-03-26T08:12:05;12.23;;;2.72;;
51312;SDS011;37397;53.226;10.400;2023-03-26T08:17:32;11.73;;;2.83;;
51312;SDS011;37397;53.226;10.400;2023-03-26T08:22:38;13.25;;;3.03;;
51312;SDS011;37397;53.226;10.400;2023-03-26T08:32:51;15.45;;;3.67;;
51312;SDS011;37397;53.226;10.400;2023-03-26T08:35:22;17.95;;;3.13;;
51312;SDS011;37397;53.226;10.400;2023-03-26T08:37:50;12.95;;;3.05;;
51312;SDS011;37397;53.226;10.400;2023-03-26T08:51:30;14.18;;;3.08;;
51312;SDS011;37397;53.226;10.400;2023-03-26T08:57:58;18.08;;;2.83;;
51312;SDS011;37397;53.226;10.400;2023-03-26T09:00:36;18.95;;;3.25;;
51312;SDS011;37397;53.226;10.400;2023-03-26T09:14:54;14.15;;;3.15;;
51312;SDS011;37397;53.226;10.400;2023-03-26T09:20:44;12.70;;;2.88;;
51312;SDS011;37397;53.226;10.400;2023-03-26T09:23:41;14.73;;;3.45;;
51312;SDS011;37397;53.226;10.400;2023-03-26T09:32:01;13.25;;;2.65;;
51312;SDS011;37397;53.226;10.400;2023-03-26T09:55:37;15.15;;;2.97;;
51312;SDS011;37397;53.226;10.400;2023-03-26T10:01:23;13.32;;;3.40;;
51312;SDS011;37397;53.226;10.400;2023-03-26T10:03:53;14.52;;;3.08;;
51312;SDS011;37397;53.226;10.400;2023-03-26T10:06:49;12.82;;;2.97;;
51312;SDS011;37397;53.226;10.400;2023-03-26T10:09:40;15.60;;;3.08;;
51312;SDS011;37397;53.226;10.400;2023-03-26T10:26:34;18.42;;;4.00;;
51312;SDS011;37397;53.226;10.400;2023-03-26T10:40:50;10.30;;;2.90;;
51312;SDS011;37397;53.226;10.400;2023-03-26T10:49:15;12.55;;;2.80;;
51312;SDS011;37397;53.226;10.400;2023-03-26T10:52:30;12.68;;;3.00;;
51312;SDS011;37397;53.226;10.400;2023-03-26T10:55:17;14.60;;;2.90;;
51312;SDS011;37397;53.226;10.400;2023-03-26T10:57:51;14.85;;;2.95;;
51312;SDS011;37397;53.226;10.400;2023-03-26T11:00:22;14.00;;;3.15;;
51312;SDS011;37397;53.226;10.400;2023-03-26T11:02:59;15.85;;;3.50;;
51312;SDS011;37397;53.226;10.400;2023-03-26T11:05:50;15.60;;;3.40;;
51312;SDS011;37397;53.226;10.400;2023-03-26T11:08:28;12.23;;;2.90;;
51312;SDS011;37397;53.226;10.400;2023-03-26T11:14:44;13.10;;;3.05;;
51312;SDS011;37397;53.226;10.400;2023-03-26T11:17:03;16.27;;;3.20;;
51312;SDS011;37397;53.226;10.400;2023-03-26T11:20:22;11.80;;;3.22;;
51312;SDS011;37397;53.226;10.400;2023-03-26T11:23:08;11.05;;;3.20;;
51312;SDS011;37397;53.226;10.400;2023-03-26T11:28:38;13.30;;;3.00;;
51312;SDS011;37397;53.226;10.400;2023-03-26T11:31:39;14.68;;;2.75;;
51312;SDS011;37397;53.226;10.400;2023-03-26T11:34:15;15.75;;;3.35;;
51312;SDS011;37397;53.226;10.400;2023-03-26T11:36:49;11.38;;;2.92;;
51312;SDS011;37397;53.226;10.400;2023-03-26T11:39:23;14.05;;;2.83;;
51312;SDS011;37397;53.226;10.400;2023-03-26T11:41:56;12.05;;;2.47;;
51312;SDS011;37397;53.226;10.400;2023-03-26T11:45:01;16.30;;;3.35;;
51312;SDS011;37397;53.226;10.400;2023-03-26T11:47:34;12.32;;;3.40;;
51312;SDS011;37397;53.226;10.400;2023-03-26T11:50:14;11.63;;;3.25;;
51312;SDS011;37397;53.226;10.400;2023-03-26T11:52:47;12.63;;;3.10;;
51312;SDS011;37397;53.226;10.400;2023-03-26T11:55:13;15.20;;;3.00;;
51312;SDS011;37397;53.226;10.400;2023-03-26T11:57:43;15.85;;;3.25;;
51312;SDS011;37397;53.226;10.400;2023-03-26T12:00:16;15.55;;;3.10;;
51312;SDS011;37397;53.226;10.400;2023-03-26T12:02:47;13.27;;;2.50;;
51312;SDS011;37397;53.226;10.400;2023-03-26T12:05:16;12.25;;;2.70;;
51312;SDS011;37397;53.226;10.400;2023-03-26T12:07:48;16.33;;;3.55;;
51312;SDS011;37397;53.226;10.400;2023-03-26T12:16:19;19.23;;;3.58;;
51312;SDS011;37397;53.226;10.400;2023-03-26T12:19:00;15.07;;;3.22;;
51312;SDS011;37397;53.226;10.400;2023-03-26T12:21:42;17.13;;;3.28;;
51312;SDS011;37397;53.226;10.400;2023-03-26T12:29:49;14.82;;;3.65;;
51312;SDS011;37397;53.226;10.400;2023-03-26T12:32:17;20.88;;;3.63;;
51312;SDS011;37397;53.226;10.400;2023-03-26T12:34:45;16.55;;;4.32;;
51312;SDS011;37397;53.226;10.400;2023-03-26T12:40:25;19.58;;;3.78;;
51312;SDS011;37397;53.226;10.400;2023-03-26T12:42:58;19.42;;;3.80;;
51312;SDS011;37397;53.226;10.400;2023-03-26T12:45:50;14.18;;;3.45;;
51312;SDS011;37397;53.226;10.400;2023-03-26T12:48:40;19.63;;;3.65;;
51312;SDS011;37397;53.226;10.400;2023-03-26T12:56:27;15.43;;;3.35;;
51312;SDS011;37397;53.226;10.400;2023-03-26T12:59:07;23.80;;;5.28;;
51312;SDS011;37397;53.226;10.400;2023-03-26T13:07:07;24.13;;;4.22;;
51312;SDS011;37397;53.226;10.400;2023-03-26T13:09:44;22.10;;;4.10;;
51312;SDS011;37397;53.226;10.400;2023-03-26T13:15:20;18.92;;;3.97;;
51312;SDS011;37397;53.226;10.400;2023-03-26T13:20:38;17.80;;;3.67;;
51312;SDS011;37397;53.226;10.400;2023-03-26T13:26:07;23.73;;;4.95;;
51312;SDS011;37397;53.226;10.400;2023-03-26T13:28:54;20.52;;;4.22;;
51312;SDS011;37397;53.226;10.400;2023-03-26T13:37:05;16.67;;;3.63;;
51312;SDS011;37397;53.226;10.400;2023-03-26T13:39:46;15.07;;;3.40;;
51312;SDS011;37397;53.226;10.400;2023-03-26T13:42:27;21.27;;;3.83;;
51312;SDS011;37397;53.226;10.400;2023-03-26T13:48:04;16.38;;;3.33;;
51312;SDS011;37397;53.226;10.400;2023-03-26T13:50:40;22.33;;;4.07;;
51312;SDS011;37397;53.226;10.400;2023-03-26T13:53:13;15.70;;;3.60;;
51312;SDS011;37397;53.226;10.400;2023-03-26T13:55:47;25.23;;;4.18;;
51312;SDS011;37397;53.226;10.400;2023-03-26T13:58:32;17.60;;;3.20;;
51312;SDS011;37397;53.226;10.400;2023-03-26T14:04:07;16.73;;;3.97;;
51312;SDS011;37397;53.226;10.400;2023-03-26T14:06:46;15.43;;;3.50;;
51312;SDS011;37397;53.226;10.400;2023-03-26T14:09:28;21.52;;;4.32;;
51312;SDS011;37397;53.226;10.400;2023-03-26T14:12:13;17.27;;;3.60;;
51312;SDS011;37397;53.226;10.400;2023-03-26T14:17:23;18.25;;;4.05;;
51312;SDS011;37397;53.226;10.400;2023-03-26T14:22:50;17.40;;;4.15;;
51312;SDS011;37397;53.226;10.400;2023-03-26T14:25:44;11.95;;;3.10;;
51312;SDS011;37397;53.226;10.400;2023-03-26T14:28:47;17.70;;;4.10;;
51312;SDS011;37397;53.226;10.400;2023-03-26T14:34:34;18.42;;;4.45;;
51312;SDS011;37397;53.226;10.400;2023-03-26T14:46:11;14.55;;;3.55;;
51312;SDS011;37397;53.226;10.400;2023-03-26T14:51:27;20.90;;;3.95;;
51312;SDS011;37397;53.226;10.400;2023-03-26T14:54:08;18.17;;;3.30;;
51312;SDS011;37397;53.226;10.400;2023-03-26T15:05:44;15.50;;;4.30;;
51312;SDS011;37397;53.226;10.400;2023-03-26T15:14:56;18.40;;;3.97;;
51312;SDS011;37397;53.226;10.400;2023-03-26T15:17:51;18.60;;;3.58;;
51312;SDS011;37397;53.226;10.400;2023-03-26T15:35:08;19.60;;;4.35;;
51312;SDS011;37397;53.226;10.400;2023-03-26T15:38:11;17.23;;;3.45;;
51312;SDS011;37397;53.226;10.400;2023-03-26T15:44:00;19.25;;;3.85;;
51312;SDS011;37397;53.226;10.400;2023-03-26T15:49:39;17.42;;;3.65;;
51312;SDS011;37397;53.226;10.400;2023-03-26T15:58:05;12.90;;;3.42;;
51312;SDS011;37397;53.226;10.400;2023-03-26T16:00:40;19.08;;;4.00;;
51312;SDS011;37397;53.226;10.400;2023-03-26T16:03:40;24.40;;;4.15;;
51312;SDS011;37397;53.226;10.400;2023-03-26T16:06:24;20.02;;;4.13;;
51312;SDS011;37397;53.226;10.400;2023-03-26T16:09:00;19.60;;;3.85;;
51312;SDS011;37397;53.226;10.400;2023-03-26T16:17:01;15.68;;;3.50;;
51312;SDS011;37397;53.226;10.400;2023-03-26T16:19:33;20.70;;;3.33;;
51312;SDS011;37397;53.226;10.400;2023-03-26T16:22:11;17.35;;;3.80;;
51312;SDS011;37397;53.226;10.400;2023-03-26T16:24:44;17.92;;;4.05;;
51312;SDS011;37397;53.226;10.400;2023-03-26T16:32:26;17.75;;;3.53;;
51312;SDS011;37397;53.226;10.400;2023-03-26T16:35:41;21.63;;;3.90;;
51312;SDS011;37397;53.226;10.400;2023-03-26T16:38:14;20.75;;;3.65;;
51312;SDS011;37397;53.226;10.400;2023-03-26T16:40:55;19.27;;;3.80;;
51312;SDS011;37397;53.226;10.400;2023-03-26T16:43:35;17.65;;;3.38;;
51312;SDS011;37397;53.226;10.400;2023-03-26T16:51:52;19.08;;;3.47;;
51312;SDS011;37397;53.226;10.400;2023-03-26T16:54:42;21.90;;;3.58;;
51312;SDS011;37397;53.226;10.400;2023-03-26T16:57:27;13.80;;;3.22;;
51312;SDS011;37397;53.226;10.400;2023-03-26T17:00:25;17.25;;;4.35;;
51312;SDS011;37397;53.226;10.400;2023-03-26T17:03:00;20.02;;;3.90;;
51312;SDS011;37397;53.226;10.400;2023-03-26T17:08:17;16.70;;;3.50;;
51312;SDS011;37397;53.226;10.400;2023-03-26T17:13:40;16.45;;;4.03;;
51312;SDS011;37397;53.226;10.400;2023-03-26T17:21:40;17.48;;;4.53;;
51312;SDS011;37397;53.226;10.400;2023-03-26T17:28:12;14.88;;;3.50;;
51312;SDS011;37397;53.226;10.400;2023-03-26T17:33:41;19.75;;;3.50;;
51312;SDS011;37397;53.226;10.400;2023-03-26T17:41:08;18.02;;;4.10;;
51312;SDS011;37397;53.226;10.400;2023-03-26T17:43:50;19.38;;;4.28;;
51312;SDS011;37397;53.226;10.400;2023-03-26T17:46:24;19.00;;;3.38;;
51312;SDS011;37397;53.226;10.400;2023-03-26T17:49:02;16.65;;;3.65;;
51312;SDS011;37397;53.226;10.400;2023-03-26T17:51:46;10.85;;;3.00;;
51312;SDS011;37397;53.226;10.400;2023-03-26T17:57:14;13.90;;;3.22;;
51312;SDS011;37397;53.226;10.400;2023-03-26T17:59:46;16.15;;;3.35;;
51312;SDS011;37397;53.226;10.400;2023-03-26T18:02:19;19.02;;;3.22;;
51312;SDS011;37397;53.226;10.400;2023-03-26T18:04:53;22.73;;;4.00;;
51312;SDS011;37397;53.226;10.400;2023-03-26T18:07:44;21.50;;;4.18;;
51312;SDS011;37397;53.226;10.400;2023-03-26T18:13:22;17.38;;;4.07;;
51312;SDS011;37397;53.226;10.400;2023-03-26T18:16:25;19.38;;;3.58;;
51312;SDS011;37397;53.226;10.400;2023-03-26T18:18:58;14.80;;;3.50;;
51312;SDS011;37397;53.226;10.400;2023-03-26T18:21:37;13.82;;;3.40;;
51312;SDS011;37397;53.226;10.400;2023-03-26T18:24:06;14.90;;;3.70;;
51312;SDS011;37397;53.226;10.400;2023-03-26T18:27:21;11.18;;;3.00;;
51312;SDS011;37397;53.226;10.400;2023-03-26T18:29:32;13.70;;;3.28;;
51312;SDS011;37397;53.226;10.400;2023-03-26T18:32:02;15.70;;;3.38;;
51312;SDS011;37397;53.226;10.400;2023-03-26T18:34:36;12.02;;;2.80;;
51312;SDS011;37397;53.226;10.400;2023-03-26T18:37:23;12.70;;;3.00;;
51312;SDS011;37397;53.226;10.400;2023-03-26T18:40:10;10.60;;;2.83;;
51312;SDS011;37397;53.226;10.400;2023-03-26T18:42:47;13.93;;;3.25;;
51312;SDS011;37397;53.226;10.400;2023-03-26T18:45:25;12.57;;;3.28;;
51312;SDS011;37397;53.226;10.400;2023-03-26T18:48:01;11.48;;;2.92;;
51312;SDS011;37397;53.226;10.400;2023-03-26T18:50:35;11.43;;;2.40;;
51312;SDS011;37397;53.226;10.400;2023-03-26T18:53:05;12.90;;;3.15;;
51312;SDS011;37397;53.226;10.400;2023-03-26T18:55:34;11.27;;;2.63;;
51312;SDS011;37397;53.226;10.400;2023-03-26T19:00:59;9.35;;;2.25;;
51312;SDS011;37397;53.226;10.400;2023-03-26T19:03:36;7.07;;;2.28;;
51312;SDS011;37397;53.226;10.400;2023-03-26T19:06:06;8.45;;;2.40;;
51312;SDS011;37397;53.226;10.400;2023-03-26T19:08:36;8.23;;;2.28;;
51312;SDS011;37397;53.226;10.400;2023-03-26T19:11:04;12.20;;;2.78;;
51312;SDS011;37397;53.226;10.400;2023-03-26T19:13:34;8.70;;;2.63;;
51312;SDS011;37397;53.226;10.400;2023-03-26T19:16:03;8.77;;;2.70;;
51312;SDS011;37397;53.226;10.400;2023-03-26T19:18:42;10.57;;;2.95;;
51312;SDS011;37397;53.226;10.400;2023-03-26T19:21:09;13.23;;;3.15;;
51312;SDS011;37397;53.226;10.400;2023-03-26T19:23:38;10.73;;;3.00;;
51312;SDS011;37397;53.226;10.400;2023-03-26T19:26:07;10.73;;;2.72;;
51312;SDS011;37397;53.226;10.400;2023-03-26T19:28:36;11.52;;;3.05;;
51312;SDS011;37397;53.226;10.400;2023-03-26T19:31:18;7.78;;;2.78;;
51312;SDS011;37397;53.226;10.400;2023-03-26T19:33:53;8.65;;;2.80;;
51312;SDS011;37397;53.226;10.400;2023-03-26T19:36:26;11.60;;;2.47;;
51312;SDS011;37397;53.226;10.400;2023-03-26T19:41:29;11.00;;;3.17;;
51312;SDS011;37397;53.226;10.400;2023-03-26T19:44:02;14.25;;;3.58;;
51312;SDS011;37397;53.226;10.400;2023-03-26T19:46:50;8.85;;;3.28;;
51312;SDS011;37397;53.226;10.400;2023-03-26T19:49:27;14.95;;;3.25;;
51312;SDS011;37397;53.226;10.400;2023-03-26T19:52:08;12.13;;;3.00;;
51312;SDS011;37397;53.226;10.400;2023-03-26T19:54:48;10.32;;;3.22;;
51312;SDS011;37397;53.226;10.400;2023-03-26T19:57:37;8.68;;;3.45;;
51312;SDS011;37397;53.226;10.400;2023-03-26T20:00:04;12.20;;;3.63;;
51312;SDS011;37397;53.226;10.400;2023-03-26T20:02:39;8.65;;;3.35;;
51312;SDS011;37397;53.226;10.400;2023-03-26T20:05:17;9.82;;;3.05;;
51312;SDS011;37397;53.226;10.400;2023-03-26T20:07:48;9.38;;;2.83;;
51312;SDS011;37397;53.226;10.400;2023-03-26T20:10:15;13.13;;;3.13;;
51312;SDS011;37397;53.226;10.400;2023-03-26T20:12:42;8.20;;;2.70;;
51312;SDS011;37397;53.226;10.400;2023-03-26T20:15:30;12.70;;;3.10;;
51312;SDS011;37397;53.226;10.400;2023-03-26T20:17:58;10.32;;;3.45;;
51312;SDS011;37397;53.226;10.400;2023-03-26T20:20:26;10.32;;;2.83;;
51312;SDS011;37397;53.226;10.400;2023-03-26T20:22:53;10.55;;;3.03;;
51312;SDS011;37397;53.226;10.400;2023-03-26T20:25:22;10.02;;;3.22;;
51312;SDS011;37397;53.226;10.400;2023-03-26T20:27:53;8.52;;;2.80;;
51312;SDS011;37397;53.226;10.400;2023-03-26T20:30:21;10.45;;;2.90;;
51312;SDS011;37397;53.226;10.400;2023-03-26T20:33:02;12.88;;;2.90;;
51312;SDS011;37397;53.226;10.400;2023-03-26T20:35:39;9.77;;;3.08;;
51312;SDS011;37397;53.226;10.400;2023-03-26T20:38:06;10.48;;;2.50;;
51312;SDS011;37397;53.226;10.400;2023-03-26T20:40:35;10.55;;;2.78;;